sensor_id;sensor_type;location;lat;lon;timestamp;temperature;humidity
18361;SHT31;9308;48.550;9.108;2023-09-30T00:00:15;19.55;62.67
18361;SHT31;9308;48.550;9.108;2023-09-30T00:02:40;19.37;63.47
18361;SHT31;9308;48.550;9.108;2023-09-30T00:05:06;19.14;63.87
18361;SHT31;9308;48.550;9.108;2023-09-30T00:07:31;19.14;64.17
18361;SHT31;9308;48.550;9.108;2023-09-30T00:09:56;19.04;64.38
18361;SHT31;9308;48.550;9.108;2023-09-30T00:12:22;19.28;63.25
18361;SHT31;9308;48.550;9.108;2023-09-30T00:14:47;18.92;64.64
18361;SHT31;9308;48.550;9.108;2023-09-30T00:17:13;19.26;63.56
18361;SHT31;9308;48.550;9.108;2023-09-30T00:19:38;19.13;63.76
18361;SHT31;9308;48.550;9.108;2023-09-30T00:22:04;19.07;64.20
18361;SHT31;9308;48.550;9.108;2023-09-30T00:24:29;19.14;63.85
18361;SHT31;9308;48.550;9.108;2023-09-30T00:26:55;18.96;64.45
18361;SHT31;9308;48.550;9.108;2023-09-30T00:29:21;19.10;63.79
18361;SHT31;9308;48.550;9.108;2023-09-30T00:31:46;19.04;63.88
18361;SHT31;9308;48.550;9.108;2023-09-30T00:34:12;19.07;63.83
18361;SHT31;9308;48.550;9.108;2023-09-30T00:36:38;19.06;63.96
18361;SHT31;9308;48.550;9.108;2023-09-30T00:39:03;19.11;63.34
18361;SHT31;9308;48.550;9.108;2023-09-30T00:41:29;18.89;64.05
18361;SHT31;9308;48.550;9.108;2023-09-30T00:43:54;18.83;64.25
18361;SHT31;9308;48.550;9.108;2023-09-30T00:46:29;18.92;63.67
18361;SHT31;9308;48.550;9.108;2023-09-30T00:48:56;18.83;63.85
18361;SHT31;9308;48.550;9.108;2023-09-30T00:51:22;18.95;63.53
18361;SHT31;9308;48.550;9.108;2023-09-30T00:53:49;18.95;63.27
18361;SHT31;9308;48.550;9.108;2023-09-30T00:56:15;18.68;64.06
18361;SHT31;9308;48.550;9.108;2023-09-30T00:58:41;18.73;63.88
18361;SHT31;9308;48.550;9.108;2023-09-30T01:01:07;18.79;63.68
18361;SHT31;9308;48.550;9.108;2023-09-30T01:03:32;18.64;63.86
18361;SHT31;9308;48.550;9.108;2023-09-30T01:05:59;18.83;62.95
18361;SHT31;9308;48.550;9.108;2023-09-30T01:08:24;18.57;64.20
18361;SHT31;9308;48.550;9.108;2023-09-30T01:10:49;18.52;64.27
18361;SHT31;9308;48.550;9.108;2023-09-30T01:13:16;18.41;64.65
18361;SHT31;9308;48.550;9.108;2023-09-30T01:15:41;18.34;64.44
18361;SHT31;9308;48.550;9.108;2023-09-30T01:18:06;18.20;65.04
18361;SHT31;9308;48.550;9.108;2023-09-30T01:20:32;18.34;64.32
18361;SHT31;9308;48.550;9.108;2023-09-30T01:22:57;18.43;64.01
18361;SHT31;9308;48.550;9.108;2023-09-30T01:25:24;18.40;64.29
18361;SHT31;9308;48.550;9.108;2023-09-30T01:27:50;18.12;64.90
18361;SHT31;9308;48.550;9.108;2023-09-30T01:30:16;18.24;64.36
18361;SHT31;9308;48.550;9.108;2023-09-30T01:32:43;18.13;65.08
18361;SHT31;9308;48.550;9.108;2023-09-30T01:35:09;17.83;66.36
18361;SHT31;9308;48.550;9.108;2023-09-30T01:37:34;17.90;66.18
18361;SHT31;9308;48.550;9.108;2023-09-30T01:40:00;18.05;65.80
18361;SHT31;9308;48.550;9.108;2023-09-30T01:42:25;18.24;65.27
18361;SHT31;9308;48.550;9.108;2023-09-30T01:44:51;18.03;65.76
18361;SHT31;9308;48.550;9.108;2023-09-30T01:47:16;18.28;64.95
18361;SHT31;9308;48.550;9.108;2023-09-30T01:49:41;18.17;65.12
18361;SHT31;9308;48.550;9.108;2023-09-30T01:52:07;18.23;64.82
18361;SHT31;9308;48.550;9.108;2023-09-30T01:54:32;17.95;65.84
18361;SHT31;9308;48.550;9.108;2023-09-30T01:56:57;18.07;65.00
18361;SHT31;9308;48.550;9.108;2023-09-30T01:59:24;18.13;65.06
18361;SHT31;9308;48.550;9.108;2023-09-30T02:01:49;18.07;65.36
18361;SHT31;9308;48.550;9.108;2023-09-30T02:04:14;17.79;66.80
18361;SHT31;9308;48.550;9.108;2023-09-30T02:06:43;17.92;66.12
18361;SHT31;9308;48.550;9.108;2023-09-30T02:09:08;17.86;66.59
18361;SHT31;9308;48.550;9.108;2023-09-30T02:11:37;17.99;66.22
18361;SHT31;9308;48.550;9.108;2023-09-30T02:14:03;18.05;66.13
18361;SHT31;9308;48.550;9.108;2023-09-30T02:16:29;17.93;66.51
18361;SHT31;9308;48.550;9.108;2023-09-30T02:18:54;17.89;66.74
18361;SHT31;9308;48.550;9.108;2023-09-30T02:21:20;17.96;66.66
18361;SHT31;9308;48.550;9.108;2023-09-30T02:23:47;17.69;67.76
18361;SHT31;9308;48.550;9.108;2023-09-30T02:26:16;17.99;66.81
18361;SHT31;9308;48.550;9.108;2023-09-30T02:28:41;17.99;66.91
18361;SHT31;9308;48.550;9.108;2023-09-30T02:31:06;18.02;66.61
18361;SHT31;9308;48.550;9.108;2023-09-30T02:33:33;18.00;66.66
18361;SHT31;9308;48.550;9.108;2023-09-30T02:36:01;17.99;67.08
18361;SHT31;9308;48.550;9.108;2023-09-30T02:38:26;17.85;67.47
18361;SHT31;9308;48.550;9.108;2023-09-30T02:40:51;17.96;67.10
18361;SHT31;9308;48.550;9.108;2023-09-30T02:43:16;18.10;66.63
18361;SHT31;9308;48.550;9.108;2023-09-30T02:45:42;18.14;66.56
18361;SHT31;9308;48.550;9.108;2023-09-30T02:48:08;17.99;67.25
18361;SHT31;9308;48.550;9.108;2023-09-30T02:50:34;17.79;67.88
18361;SHT31;9308;48.550;9.108;2023-09-30T02:52:59;17.89;67.34
18361;SHT31;9308;48.550;9.108;2023-09-30T02:55:25;17.83;67.71
18361;SHT31;9308;48.550;9.108;2023-09-30T02:57:50;17.86;67.56
18361;SHT31;9308;48.550;9.108;2023-09-30T03:00:16;17.89;67.57
18361;SHT31;9308;48.550;9.108;2023-09-30T03:02:55;17.72;67.96
18361;SHT31;9308;48.550;9.108;2023-09-30T03:05:21;17.79;67.99
18361;SHT31;9308;48.550;9.108;2023-09-30T03:07:47;17.81;67.98
18361;SHT31;9308;48.550;9.108;2023-09-30T03:10:12;17.83;67.70
18361;SHT31;9308;48.550;9.108;2023-09-30T03:12:39;18.20;66.85
18361;SHT31;9308;48.550;9.108;2023-09-30T03:15:05;18.40;66.00
18361;SHT31;9308;48.550;9.108;2023-09-30T03:17:31;18.35;66.00
18361;SHT31;9308;48.550;9.108;2023-09-30T03:19:57;18.28;66.33
18361;SHT31;9308;48.550;9.108;2023-09-30T03:22:23;18.44;65.83
18361;SHT31;9308;48.550;9.108;2023-09-30T03:24:48;18.54;65.81
18361;SHT31;9308;48.550;9.108;2023-09-30T03:27:14;18.43;66.00
18361;SHT31;9308;48.550;9.108;2023-09-30T03:29:40;18.34;66.09
18361;SHT31;9308;48.550;9.108;2023-09-30T03:32:06;18.44;65.98
18361;SHT31;9308;48.550;9.108;2023-09-30T03:34:31;18.20;66.31
18361;SHT31;9308;48.550;9.108;2023-09-30T03:36:57;18.27;66.17
18361;SHT31;9308;48.550;9.108;2023-09-30T03:39:24;18.25;66.30
18361;SHT31;9308;48.550;9.108;2023-09-30T03:41:56;18.14;66.69
18361;SHT31;9308;48.550;9.108;2023-09-30T03:44:22;18.02;66.97
18361;SHT31;9308;48.550;9.108;2023-09-30T03:46:48;17.90;67.34
18361;SHT31;9308;48.550;9.108;2023-09-30T03:49:15;17.96;67.03
18361;SHT31;9308;48.550;9.108;2023-09-30T03:51:40;18.06;66.79
18361;SHT31;9308;48.550;9.108;2023-09-30T03:54:06;18.07;66.21
18361;SHT31;9308;48.550;9.108;2023-09-30T03:56:34;17.97;66.61
18361;SHT31;9308;48.550;9.108;2023-09-30T03:58:59;18.00;66.46
18361;SHT31;9308;48.550;9.108;2023-09-30T04:01:25;17.79;67.12
18361;SHT31;9308;48.550;9.108;2023-09-30T04:03:51;17.67;67.21
18361;SHT31;9308;48.550;9.108;2023-09-30T04:06:20;17.67;66.91
18361;SHT31;9308;48.550;9.108;2023-09-30T04:08:45;17.59;67.37
18361;SHT31;9308;48.550;9.108;2023-09-30T04:11:10;17.72;66.89
18361;SHT31;9308;48.550;9.108;2023-09-30T04:13:40;17.74;66.67
18361;SHT31;9308;48.550;9.108;2023-09-30T04:16:05;17.65;67.17
18361;SHT31;9308;48.550;9.108;2023-09-30T04:18:30;17.75;66.88
18361;SHT31;9308;48.550;9.108;2023-09-30T04:20:55;17.82;66.65
18361;SHT31;9308;48.550;9.108;2023-09-30T04:23:22;17.72;66.67
18361;SHT31;9308;48.550;9.108;2023-09-30T04:25:47;17.76;66.62
18361;SHT31;9308;48.550;9.108;2023-09-30T04:28:13;17.59;67.06
18361;SHT31;9308;48.550;9.108;2023-09-30T04:30:39;17.76;66.55
18361;SHT31;9308;48.550;9.108;2023-09-30T04:33:05;17.64;67.10
18361;SHT31;9308;48.550;9.108;2023-09-30T04:35:32;17.71;67.04
18361;SHT31;9308;48.550;9.108;2023-09-30T04:37:57;17.69;67.06
18361;SHT31;9308;48.550;9.108;2023-09-30T04:40:27;17.75;66.86
18361;SHT31;9308;48.550;9.108;2023-09-30T04:42:52;17.78;66.53
18361;SHT31;9308;48.550;9.108;2023-09-30T04:45:20;17.67;67.04
18361;SHT31;9308;48.550;9.108;2023-09-30T04:47:45;17.82;66.58
18361;SHT31;9308;48.550;9.108;2023-09-30T04:50:11;17.79;66.54
18361;SHT31;9308;48.550;9.108;2023-09-30T04:52:38;17.85;66.44
18361;SHT31;9308;48.550;9.108;2023-09-30T04:55:05;17.65;67.53
18361;SHT31;9308;48.550;9.108;2023-09-30T04:57:31;17.83;66.92
18361;SHT31;9308;48.550;9.108;2023-09-30T04:59:59;18.02;66.23
18361;SHT31;9308;48.550;9.108;2023-09-30T05:02:27;17.75;67.29
18361;SHT31;9308;48.550;9.108;2023-09-30T05:04:52;17.76;67.37
18361;SHT31;9308;48.550;9.108;2023-09-30T05:07:20;17.58;67.86
18361;SHT31;9308;48.550;9.108;2023-09-30T05:09:46;17.75;67.35
18361;SHT31;9308;48.550;9.108;2023-09-30T05:12:11;17.82;67.41
18361;SHT31;9308;48.550;9.108;2023-09-30T05:14:37;17.95;66.55
18361;SHT31;9308;48.550;9.108;2023-09-30T05:17:04;17.79;67.20
18361;SHT31;9308;48.550;9.108;2023-09-30T05:19:30;17.81;67.11
18361;SHT31;9308;48.550;9.108;2023-09-30T05:21:57;17.92;66.89
18361;SHT31;9308;48.550;9.108;2023-09-30T05:24:22;17.81;67.10
18361;SHT31;9308;48.550;9.108;2023-09-30T05:26:48;17.81;67.15
18361;SHT31;9308;48.550;9.108;2023-09-30T05:29:13;17.86;67.09
18361;SHT31;9308;48.550;9.108;2023-09-30T05:31:39;17.83;67.44
18361;SHT31;9308;48.550;9.108;2023-09-30T05:34:04;17.87;67.17
18361;SHT31;9308;48.550;9.108;2023-09-30T05:36:29;17.93;67.47
18361;SHT31;9308;48.550;9.108;2023-09-30T05:38:55;17.85;67.77
18361;SHT31;9308;48.550;9.108;2023-09-30T05:41:23;17.86;67.86
18361;SHT31;9308;48.550;9.108;2023-09-30T05:43:49;18.02;67.59
18361;SHT31;9308;48.550;9.108;2023-09-30T05:46:15;17.96;67.79
18361;SHT31;9308;48.550;9.108;2023-09-30T05:48:41;17.82;68.31
18361;SHT31;9308;48.550;9.108;2023-09-30T05:51:06;18.09;67.40
18361;SHT31;9308;48.550;9.108;2023-09-30T05:53:32;18.18;66.97
18361;SHT31;9308;48.550;9.108;2023-09-30T05:55:58;18.09;67.59
18361;SHT31;9308;48.550;9.108;2023-09-30T05:58:25;18.25;66.80
18361;SHT31;9308;48.550;9.108;2023-09-30T06:00:50;18.03;67.50
18361;SHT31;9308;48.550;9.108;2023-09-30T06:03:16;17.85;67.73
18361;SHT31;9308;48.550;9.108;2023-09-30T06:05:42;17.83;67.98
18361;SHT31;9308;48.550;9.108;2023-09-30T06:08:09;17.90;67.95
18361;SHT31;9308;48.550;9.108;2023-09-30T06:10:36;17.99;67.68
18361;SHT31;9308;48.550;9.108;2023-09-30T06:13:03;18.21;67.12
18361;SHT31;9308;48.550;9.108;2023-09-30T06:15:28;18.06;67.37
18361;SHT31;9308;48.550;9.108;2023-09-30T06:17:55;17.93;67.76
18361;SHT31;9308;48.550;9.108;2023-09-30T06:20:21;18.03;67.71
18361;SHT31;9308;48.550;9.108;2023-09-30T06:22:48;18.06;67.48
18361;SHT31;9308;48.550;9.108;2023-09-30T06:25:17;18.00;67.65
18361;SHT31;9308;48.550;9.108;2023-09-30T06:27:46;18.20;67.03
18361;SHT31;9308;48.550;9.108;2023-09-30T06:30:13;18.24;67.04
18361;SHT31;9308;48.550;9.108;2023-09-30T06:32:39;18.18;67.32
18361;SHT31;9308;48.550;9.108;2023-09-30T06:35:06;18.12;67.67
18361;SHT31;9308;48.550;9.108;2023-09-30T06:37:32;18.07;67.92
18361;SHT31;9308;48.550;9.108;2023-09-30T06:39:57;18.17;67.71
18361;SHT31;9308;48.550;9.108;2023-09-30T06:42:24;18.45;66.77
18361;SHT31;9308;48.550;9.108;2023-09-30T06:44:50;18.58;66.24
18361;SHT31;9308;48.550;9.108;2023-09-30T06:47:15;18.41;66.87
18361;SHT31;9308;48.550;9.108;2023-09-30T06:49:41;18.68;66.06
18361;SHT31;9308;48.550;9.108;2023-09-30T06:52:06;18.81;66.20
18361;SHT31;9308;48.550;9.108;2023-09-30T06:54:32;18.99;65.85
18361;SHT31;9308;48.550;9.108;2023-09-30T06:56:58;19.04;65.76
18361;SHT31;9308;48.550;9.108;2023-09-30T06:59:23;19.19;65.44
18361;SHT31;9308;48.550;9.108;2023-09-30T07:01:50;19.34;65.33
18361;SHT31;9308;48.550;9.108;2023-09-30T07:04:15;19.09;65.95
18361;SHT31;9308;48.550;9.108;2023-09-30T07:06:41;19.28;65.44
18361;SHT31;9308;48.550;9.108;2023-09-30T07:09:06;19.10;65.90
18361;SHT31;9308;48.550;9.108;2023-09-30T07:11:31;19.51;65.03
18361;SHT31;9308;48.550;9.108;2023-09-30T07:13:59;19.40;65.67
18361;SHT31;9308;48.550;9.108;2023-09-30T07:16:25;19.61;65.15
18361;SHT31;9308;48.550;9.108;2023-09-30T07:18:51;19.83;64.73
18361;SHT31;9308;48.550;9.108;2023-09-30T07:21:16;19.90;64.83
18361;SHT31;9308;48.550;9.108;2023-09-30T07:23:42;19.78;65.10
18361;SHT31;9308;48.550;9.108;2023-09-30T07:26:07;19.78;65.27
18361;SHT31;9308;48.550;9.108;2023-09-30T07:28:33;19.74;64.48
18361;SHT31;9308;48.550;9.108;2023-09-30T07:30:58;19.45;65.82
18361;SHT31;9308;48.550;9.108;2023-09-30T07:33:24;19.72;64.16
18361;SHT31;9308;48.550;9.108;2023-09-30T07:35:49;20.03;64.18
18361;SHT31;9308;48.550;9.108;2023-09-30T07:38:14;20.16;63.77
18361;SHT31;9308;48.550;9.108;2023-09-30T07:40:40;20.19;64.14
18361;SHT31;9308;48.550;9.108;2023-09-30T07:43:05;20.36;63.21
18361;SHT31;9308;48.550;9.108;2023-09-30T07:45:31;20.50;63.36
18361;SHT31;9308;48.550;9.108;2023-09-30T07:47:56;20.43;62.96
18361;SHT31;9308;48.550;9.108;2023-09-30T07:50:23;20.47;63.02
18361;SHT31;9308;48.550;9.108;2023-09-30T07:52:48;20.57;62.77
18361;SHT31;9308;48.550;9.108;2023-09-30T07:55:14;20.48;62.57
18361;SHT31;9308;48.550;9.108;2023-09-30T07:57:40;20.41;63.54
18361;SHT31;9308;48.550;9.108;2023-09-30T08:00:07;20.64;62.43
18361;SHT31;9308;48.550;9.108;2023-09-30T08:02:34;20.69;62.37
18361;SHT31;9308;48.550;9.108;2023-09-30T08:04:59;20.94;62.52
18361;SHT31;9308;48.550;9.108;2023-09-30T08:07:25;21.10;61.58
18361;SHT31;9308;48.550;9.108;2023-09-30T08:09:51;21.02;62.07
18361;SHT31;9308;48.550;9.108;2023-09-30T08:12:16;21.30;61.03
18361;SHT31;9308;48.550;9.108;2023-09-30T08:14:41;21.44;61.48
18361;SHT31;9308;48.550;9.108;2023-09-30T08:17:09;21.37;60.80
18361;SHT31;9308;48.550;9.108;2023-09-30T08:19:35;21.47;60.03
18361;SHT31;9308;48.550;9.108;2023-09-30T08:22:01;21.39;59.83
18361;SHT31;9308;48.550;9.108;2023-09-30T08:24:30;21.55;60.11
18361;SHT31;9308;48.550;9.108;2023-09-30T08:26:56;21.67;60.48
18361;SHT31;9308;48.550;9.108;2023-09-30T08:29:22;21.74;59.39
18361;SHT31;9308;48.550;9.108;2023-09-30T08:31:47;22.17;58.72
18361;SHT31;9308;48.550;9.108;2023-09-30T08:34:12;22.08;57.63
18361;SHT31;9308;48.550;9.108;2023-09-30T08:36:40;22.29;57.38
18361;SHT31;9308;48.550;9.108;2023-09-30T08:39:06;21.99;58.21
18361;SHT31;9308;48.550;9.108;2023-09-30T08:41:33;22.12;58.15
18361;SHT31;9308;48.550;9.108;2023-09-30T08:44:00;21.87;57.84
18361;SHT31;9308;48.550;9.108;2023-09-30T08:46:33;22.08;58.78
18361;SHT31;9308;48.550;9.108;2023-09-30T08:49:03;22.05;57.28
18361;SHT31;9308;48.550;9.108;2023-09-30T08:51:30;22.39;57.74
18361;SHT31;9308;48.550;9.108;2023-09-30T08:53:56;22.71;55.56
18361;SHT31;9308;48.550;9.108;2023-09-30T08:56:26;22.59;56.71
18361;SHT31;9308;48.550;9.108;2023-09-30T08:58:52;22.77;56.91
18361;SHT31;9308;48.550;9.108;2023-09-30T09:01:18;22.88;56.68
18361;SHT31;9308;48.550;9.108;2023-09-30T09:03:43;22.90;56.85
18361;SHT31;9308;48.550;9.108;2023-09-30T09:06:09;23.18;55.85
18361;SHT31;9308;48.550;9.108;2023-09-30T09:08:34;23.26;54.92
18361;SHT31;9308;48.550;9.108;2023-09-30T09:11:00;23.45;54.61
18361;SHT31;9308;48.550;9.108;2023-09-30T09:13:26;23.33;54.69
18361;SHT31;9308;48.550;9.108;2023-09-30T09:16:10;23.39;54.18
18361;SHT31;9308;48.550;9.108;2023-09-30T09:18:36;23.71;54.15
18361;SHT31;9308;48.550;9.108;2023-09-30T09:21:12;23.83;52.48
18361;SHT31;9308;48.550;9.108;2023-09-30T09:23:42;24.22;52.03
18361;SHT31;9308;48.550;9.108;2023-09-30T09:26:09;24.78;52.07
18361;SHT31;9308;48.550;9.108;2023-09-30T09:28:35;24.73;50.55
18361;SHT31;9308;48.550;9.108;2023-09-30T09:31:02;24.83;49.86
18361;SHT31;9308;48.550;9.108;2023-09-30T09:33:36;26.72;47.23
18361;SHT31;9308;48.550;9.108;2023-09-30T09:36:05;26.34;46.14
18361;SHT31;9308;48.550;9.108;2023-09-30T09:38:46;26.87;46.99
18361;SHT31;9308;48.550;9.108;2023-09-30T09:41:13;27.32;45.15
18361;SHT31;9308;48.550;9.108;2023-09-30T09:43:41;27.58;45.27
18361;SHT31;9308;48.550;9.108;2023-09-30T09:46:07;27.69;45.01
18361;SHT31;9308;48.550;9.108;2023-09-30T09:48:36;28.21;43.13
18361;SHT31;9308;48.550;9.108;2023-09-30T09:51:03;27.79;42.51
18361;SHT31;9308;48.550;9.108;2023-09-30T09:53:30;27.99;43.15
18361;SHT31;9308;48.550;9.108;2023-09-30T09:55:59;28.49;43.57
18361;SHT31;9308;48.550;9.108;2023-09-30T09:58:25;28.06;42.18
18361;SHT31;9308;48.550;9.108;2023-09-30T10:00:52;27.96;44.05
18361;SHT31;9308;48.550;9.108;2023-09-30T10:03:18;28.02;43.57
18361;SHT31;9308;48.550;9.108;2023-09-30T10:05:44;28.03;43.96
18361;SHT31;9308;48.550;9.108;2023-09-30T10:08:14;28.09;42.25
18361;SHT31;9308;48.550;9.108;2023-09-30T10:10:43;27.69;41.96
18361;SHT31;9308;48.550;9.108;2023-09-30T10:13:09;27.75;43.18
18361;SHT31;9308;48.550;9.108;2023-09-30T10:15:36;27.32;44.95
18361;SHT31;9308;48.550;9.108;2023-09-30T10:20:36;31.86;35.71
18361;SHT31;9308;48.550;9.108;2023-09-30T10:25:43;33.59;33.86
18361;SHT31;9308;48.550;9.108;2023-09-30T10:28:34;31.85;34.56
18361;SHT31;9308;48.550;9.108;2023-09-30T10:31:16;34.25;32.45
18361;SHT31;9308;48.550;9.108;2023-09-30T10:36:36;27.45;40.76
18361;SHT31;9308;48.550;9.108;2023-09-30T10:39:04;27.11;41.01
18361;SHT31;9308;48.550;9.108;2023-09-30T10:46:47;26.35;43.65
18361;SHT31;9308;48.550;9.108;2023-09-30T10:51:55;26.72;43.61
18361;SHT31;9308;48.550;9.108;2023-09-30T10:54:29;32.02;34.40
18361;SHT31;9308;48.550;9.108;2023-09-30T10:56:55;36.12;29.82
18361;SHT31;9308;48.550;9.108;2023-09-30T10:59:21;38.10;27.64
18361;SHT31;9308;48.550;9.108;2023-09-30T11:01:47;39.58;24.26
18361;SHT31;9308;48.550;9.108;2023-09-30T11:04:13;39.02;24.58
18361;SHT31;9308;48.550;9.108;2023-09-30T11:06:41;39.45;24.15
18361;SHT31;9308;48.550;9.108;2023-09-30T11:09:07;41.27;23.01
18361;SHT31;9308;48.550;9.108;2023-09-30T11:14:17;35.50;28.43
18361;SHT31;9308;48.550;9.108;2023-09-30T11:16:42;40.10;22.78
18361;SHT31;9308;48.550;9.108;2023-09-30T11:19:11;39.99;25.05
18361;SHT31;9308;48.550;9.108;2023-09-30T11:21:38;34.90;28.22
18361;SHT31;9308;48.550;9.108;2023-09-30T11:24:05;32.78;31.07
18361;SHT31;9308;48.550;9.108;2023-09-30T11:26:32;30.71;35.73
18361;SHT31;9308;48.550;9.108;2023-09-30T11:29:05;30.14;35.73
18361;SHT31;9308;48.550;9.108;2023-09-30T11:31:31;28.92;37.78
18361;SHT31;9308;48.550;9.108;2023-09-30T11:33:59;28.04;38.90
18361;SHT31;9308;48.550;9.108;2023-09-30T11:36:29;27.44;40.67
18361;SHT31;9308;48.550;9.108;2023-09-30T11:38:56;27.20;41.53
18361;SHT31;9308;48.550;9.108;2023-09-30T11:41:21;27.42;40.60
18361;SHT31;9308;48.550;9.108;2023-09-30T11:44:03;27.11;40.83
18361;SHT31;9308;48.550;9.108;2023-09-30T11:47:06;26.99;42.14
18361;SHT31;9308;48.550;9.108;2023-09-30T11:49:37;26.35;43.69
18361;SHT31;9308;48.550;9.108;2023-09-30T11:52:08;26.56;43.15
18361;SHT31;9308;48.550;9.108;2023-09-30T11:54:36;25.90;44.69
18361;SHT31;9308;48.550;9.108;2023-09-30T11:57:07;26.01;45.38
18361;SHT31;9308;48.550;9.108;2023-09-30T11:59:35;25.87;44.37
18361;SHT31;9308;48.550;9.108;2023-09-30T12:02:02;25.73;45.66
18361;SHT31;9308;48.550;9.108;2023-09-30T12:04:28;25.84;45.11
18361;SHT31;9308;48.550;9.108;2023-09-30T12:06:54;26.14;44.61
18361;SHT31;9308;48.550;9.108;2023-09-30T12:09:20;25.76;43.24
18361;SHT31;9308;48.550;9.108;2023-09-30T12:11:50;25.83;43.39
18361;SHT31;9308;48.550;9.108;2023-09-30T12:14:16;28.04;40.12
18361;SHT31;9308;48.550;9.108;2023-09-30T12:16:42;28.68;39.70
18361;SHT31;9308;48.550;9.108;2023-09-30T12:19:09;28.21;39.40
18361;SHT31;9308;48.550;9.108;2023-09-30T12:21:35;27.03;39.96
18361;SHT31;9308;48.550;9.108;2023-09-30T12:24:01;26.46;40.97
18361;SHT31;9308;48.550;9.108;2023-09-30T12:26:29;26.11;40.90
18361;SHT31;9308;48.550;9.108;2023-09-30T12:28:55;26.15;42.20
18361;SHT31;9308;48.550;9.108;2023-09-30T12:31:21;25.86;43.94
18361;SHT31;9308;48.550;9.108;2023-09-30T12:33:48;26.24;42.11
18361;SHT31;9308;48.550;9.108;2023-09-30T12:36:16;25.79;42.39
18361;SHT31;9308;48.550;9.108;2023-09-30T12:38:42;25.73;42.21
18361;SHT31;9308;48.550;9.108;2023-09-30T12:41:07;25.32;42.26
18361;SHT31;9308;48.550;9.108;2023-09-30T12:43:33;25.35;43.45
18361;SHT31;9308;48.550;9.108;2023-09-30T12:45:58;25.60;42.73
18361;SHT31;9308;48.550;9.108;2023-09-30T12:48:24;25.83;42.51
18361;SHT31;9308;48.550;9.108;2023-09-30T12:50:50;26.20;43.38
18361;SHT31;9308;48.550;9.108;2023-09-30T12:53:15;26.18;42.40
18361;SHT31;9308;48.550;9.108;2023-09-30T12:55:40;26.52;42.66
18361;SHT31;9308;48.550;9.108;2023-09-30T12:58:06;26.09;42.29
18361;SHT31;9308;48.550;9.108;2023-09-30T13:00:31;26.42;41.34
18361;SHT31;9308;48.550;9.108;2023-09-30T13:02:58;26.62;41.23
18361;SHT31;9308;48.550;9.108;2023-09-30T13:05:24;26.70;41.49
18361;SHT31;9308;48.550;9.108;2023-09-30T13:07:50;26.79;40.42
18361;SHT31;9308;48.550;9.108;2023-09-30T13:10:15;26.09;40.44
18361;SHT31;9308;48.550;9.108;2023-09-30T13:12:41;26.14;42.15
18361;SHT31;9308;48.550;9.108;2023-09-30T13:15:07;26.39;42.94
18361;SHT31;9308;48.550;9.108;2023-09-30T13:17:34;26.46;40.43
18361;SHT31;9308;48.550;9.108;2023-09-30T13:19:59;26.86;39.74
18361;SHT31;9308;48.550;9.108;2023-09-30T13:22:25;26.45;39.21
18361;SHT31;9308;48.550;9.108;2023-09-30T13:24:50;25.83;41.26
18361;SHT31;9308;48.550;9.108;2023-09-30T13:27:16;26.51;41.46
18361;SHT31;9308;48.550;9.108;2023-09-30T13:29:42;27.38;39.02
18361;SHT31;9308;48.550;9.108;2023-09-30T13:32:09;27.82;39.33
18361;SHT31;9308;48.550;9.108;2023-09-30T13:34:35;27.37;37.55
18361;SHT31;9308;48.550;9.108;2023-09-30T13:37:00;27.66;37.59
18361;SHT31;9308;48.550;9.108;2023-09-30T13:39:26;27.85;37.54
18361;SHT31;9308;48.550;9.108;2023-09-30T13:41:51;27.44;38.92
18361;SHT31;9308;48.550;9.108;2023-09-30T13:44:17;27.47;38.13
18361;SHT31;9308;48.550;9.108;2023-09-30T13:46:43;27.87;38.16
18361;SHT31;9308;48.550;9.108;2023-09-30T13:49:08;28.59;36.78
18361;SHT31;9308;48.550;9.108;2023-09-30T13:51:34;28.96;36.01
18361;SHT31;9308;48.550;9.108;2023-09-30T13:53:59;28.93;35.76
18361;SHT31;9308;48.550;9.108;2023-09-30T13:56:25;28.52;37.81
18361;SHT31;9308;48.550;9.108;2023-09-30T13:58:50;26.96;38.24
18361;SHT31;9308;48.550;9.108;2023-09-30T14:01:15;27.27;39.89
18361;SHT31;9308;48.550;9.108;2023-09-30T14:03:41;27.63;38.19
18361;SHT31;9308;48.550;9.108;2023-09-30T14:06:10;27.44;38.38
18361;SHT31;9308;48.550;9.108;2023-09-30T14:08:37;27.76;39.02
18361;SHT31;9308;48.550;9.108;2023-09-30T14:11:03;27.63;36.45
18361;SHT31;9308;48.550;9.108;2023-09-30T14:13:28;27.47;38.83
18361;SHT31;9308;48.550;9.108;2023-09-30T14:15:53;27.38;38.05
18361;SHT31;9308;48.550;9.108;2023-09-30T14:18:18;27.58;36.65
18361;SHT31;9308;48.550;9.108;2023-09-30T14:20:44;27.32;37.03
18361;SHT31;9308;48.550;9.108;2023-09-30T14:23:20;27.42;37.51
18361;SHT31;9308;48.550;9.108;2023-09-30T14:25:45;27.44;38.65
18361;SHT31;9308;48.550;9.108;2023-09-30T14:28:10;27.12;39.78
18361;SHT31;9308;48.550;9.108;2023-09-30T14:30:36;27.25;38.94
18361;SHT31;9308;48.550;9.108;2023-09-30T14:33:01;27.41;39.61
18361;SHT31;9308;48.550;9.108;2023-09-30T14:35:28;27.52;39.42
18361;SHT31;9308;48.550;9.108;2023-09-30T14:37:54;27.62;39.79
18361;SHT31;9308;48.550;9.108;2023-09-30T14:40:20;27.38;39.74
18361;SHT31;9308;48.550;9.108;2023-09-30T14:42:57;26.70;41.79
18361;SHT31;9308;48.550;9.108;2023-09-30T14:45:30;26.90;42.06
18361;SHT31;9308;48.550;9.108;2023-09-30T14:47:59;26.86;41.89
18361;SHT31;9308;48.550;9.108;2023-09-30T14:50:36;26.82;41.46
18361;SHT31;9308;48.550;9.108;2023-09-30T14:53:03;26.76;41.87
18361;SHT31;9308;48.550;9.108;2023-09-30T14:55:28;26.62;42.66
18361;SHT31;9308;48.550;9.108;2023-09-30T14:57:55;26.56;42.44
18361;SHT31;9308;48.550;9.108;2023-09-30T15:00:21;26.66;41.76
18361;SHT31;9308;48.550;9.108;2023-09-30T15:02:50;26.28;42.15
18361;SHT31;9308;48.550;9.108;2023-09-30T15:05:15;26.21;42.57
18361;SHT31;9308;48.550;9.108;2023-09-30T15:07:41;25.69;42.86
18361;SHT31;9308;48.550;9.108;2023-09-30T15:10:06;26.05;42.49
18361;SHT31;9308;48.550;9.108;2023-09-30T15:12:32;25.94;42.73
18361;SHT31;9308;48.550;9.108;2023-09-30T15:14:57;26.08;43.11
18361;SHT31;9308;48.550;9.108;2023-09-30T15:17:23;25.47;44.86
18361;SHT31;9308;48.550;9.108;2023-09-30T15:19:48;25.43;43.93
18361;SHT31;9308;48.550;9.108;2023-09-30T15:22:19;25.39;43.06
18361;SHT31;9308;48.550;9.108;2023-09-30T15:24:45;25.24;44.43
18361;SHT31;9308;48.550;9.108;2023-09-30T15:27:10;25.39;43.68
18361;SHT31;9308;48.550;9.108;2023-09-30T15:29:38;25.10;43.82
18361;SHT31;9308;48.550;9.108;2023-09-30T15:32:04;25.35;44.03
18361;SHT31;9308;48.550;9.108;2023-09-30T15:34:30;24.78;46.74
18361;SHT31;9308;48.550;9.108;2023-09-30T15:36:55;24.86;46.10
18361;SHT31;9308;48.550;9.108;2023-09-30T15:39:20;24.98;45.93
18361;SHT31;9308;48.550;9.108;2023-09-30T15:41:46;24.98;44.96
18361;SHT31;9308;48.550;9.108;2023-09-30T15:44:11;24.81;45.76
18361;SHT31;9308;48.550;9.108;2023-09-30T15:46:36;24.94;46.68
18361;SHT31;9308;48.550;9.108;2023-09-30T15:49:02;24.42;45.11
18361;SHT31;9308;48.550;9.108;2023-09-30T15:51:27;24.52;46.05
18361;SHT31;9308;48.550;9.108;2023-09-30T15:53:55;24.53;45.55
18361;SHT31;9308;48.550;9.108;2023-09-30T15:56:22;24.48;45.53
18361;SHT31;9308;48.550;9.108;2023-09-30T15:58:47;24.32;45.64